createdAt,value
2016-04-01T00:00:02.829Z,0
2016-04-01T00:01:02.847Z,0
2016-04-01T00:02:02.834Z,0
2016-04-01T00:03:02.915Z,0
2016-04-01T00:04:02.839Z,0
2016-04-01T00:05:02.842Z,0
2016-04-01T00:06:02.844Z,0
2016-04-01T00:07:02.847Z,0
2016-04-01T00:08:02.850Z,0
2016-04-01T00:09:02.838Z,0
2016-04-01T00:10:02.902Z,0
2016-04-01T00:11:02.843Z,0
2016-04-01T00:12:02.846Z,0
2016-04-01T00:13:02.864Z,0
2016-04-01T00:14:02.851Z,0
2016-04-01T00:15:02.854Z,0
2016-04-01T00:16:02.856Z,0
2016-04-01T00:17:02.875Z,0
2016-04-01T00:18:02.877Z,0
2016-04-01T00:19:02.895Z,0
2016-04-01T00:20:06.102Z,0
2016-04-01T00:21:02.838Z,0
2016-04-01T00:22:02.840Z,0
2016-04-01T00:23:02.860Z,0
2016-04-01T00:24:02.846Z,0
2016-04-01T00:25:02.849Z,0
2016-04-01T00:26:02.868Z,0
2016-04-01T00:27:02.839Z,0
2016-04-01T00:28:02.842Z,0
2016-04-01T00:29:02.859Z,0
2016-04-01T00:30:02.847Z,0
2016-04-01T00:31:02.865Z,0
2016-04-01T00:32:02.883Z,0
2016-04-01T00:33:02.918Z,0
2016-04-01T00:34:02.858Z,0
2016-04-01T00:35:02.860Z,0
2016-04-01T00:36:02.864Z,0
2016-04-01T00:37:02.850Z,0
2016-04-01T00:38:02.852Z,0
2016-04-01T00:39:02.840Z,0
2016-04-01T00:40:02.842Z,0
2016-04-01T00:41:02.861Z,0
2016-04-01T00:42:02.848Z,0
2016-04-01T00:43:02.850Z,0
2016-04-01T00:44:02.853Z,0
2016-04-01T00:45:02.871Z,0
2016-04-01T00:46:02.874Z,0
2016-04-01T00:47:02.861Z,0
2016-04-01T00:48:02.863Z,0
2016-04-01T00:49:02.851Z,0
2016-04-01T00:50:02.869Z,0
2016-04-01T00:51:02.857Z,0
2016-04-01T00:52:02.844Z,0
2016-04-01T00:53:02.846Z,0
2016-04-01T00:54:02.848Z,0
2016-04-01T00:55:02.868Z,0
2016-04-01T00:56:02.871Z,0
2016-04-01T00:57:02.857Z,0
2016-04-01T00:58:02.860Z,0
2016-04-01T00:59:02.862Z,0
2016-04-01T01:00:02.865Z,0
2016-04-01T01:01:02.868Z,0
2016-04-01T01:02:02.871Z,0
2016-04-01T01:03:02.858Z,0
2016-04-01T01:04:02.861Z,0
2016-04-01T01:05:02.864Z,0
2016-04-01T01:06:02.866Z,0
2016-04-01T01:07:02.869Z,0
2016-04-01T01:08:02.855Z,0
2016-04-01T01:09:02.858Z,0
2016-04-01T01:10:02.861Z,0
2016-04-01T01:11:02.880Z,0
2016-04-01T01:12:02.866Z,0
2016-04-01T01:13:02.869Z,0
2016-04-01T01:14:02.856Z,0
2016-04-01T01:15:02.858Z,0
2016-04-01T01:16:02.861Z,0
2016-04-01T01:17:02.864Z,0
2016-04-01T01:18:02.866Z,0
2016-04-01T01:19:02.838Z,0
2016-04-01T01:20:02.857Z,0
2016-04-01T01:21:02.859Z,0
2016-04-01T01:22:02.862Z,0
2016-04-01T01:23:02.880Z,0
2016-04-01T01:24:02.867Z,0
2016-04-01T01:25:02.854Z,0
2016-04-01T01:26:02.873Z,0
2016-04-01T01:27:02.859Z,0
2016-04-01T01:28:02.862Z,0
2016-04-01T01:29:02.865Z,0
2016-04-01T01:30:02.868Z,0
2016-04-01T01:31:02.854Z,0
2016-04-01T01:32:02.857Z,0
2016-04-01T01:33:02.876Z,0
2016-04-01T01:34:02.862Z,0
2016-04-01T01:35:02.865Z,0
2016-04-01T01:36:02.867Z,0
2016-04-01T01:37:02.870Z,0
2016-04-01T01:38:02.873Z,0
2016-04-01T01:39:02.876Z,0
2016-04-01T01:40:02.863Z,0
2016-04-01T01:41:02.866Z,0
2016-04-01T01:42:02.853Z,0
2016-04-01T01:43:02.871Z,0
2016-04-01T01:44:02.874Z,0
2016-04-01T01:45:02.860Z,0
2016-04-01T01:46:02.864Z,0
2016-04-01T01:47:02.866Z,0
2016-04-01T01:48:02.869Z,0
2016-04-01T01:49:02.857Z,0
2016-04-01T01:50:02.859Z,0
2016-04-01T01:51:02.877Z,0
2016-04-01T01:52:02.865Z,0
2016-04-01T01:53:02.867Z,0
2016-04-01T01:54:02.870Z,0
2016-04-01T01:55:02.873Z,0
2016-04-01T01:56:02.876Z,0
2016-04-01T01:57:02.878Z,0
2016-04-01T01:58:02.881Z,0
2016-04-01T01:59:02.884Z,0
2016-04-01T02:00:02.870Z,0
2016-04-01T02:01:02.873Z,0
2016-04-01T02:02:02.891Z,0
2016-04-01T02:03:02.862Z,0
2016-04-01T02:04:02.865Z,0
2016-04-01T02:05:02.867Z,0
2016-04-01T02:06:02.886Z,0
2016-04-01T02:07:02.873Z,0
2016-04-01T02:08:02.881Z,0
2016-04-01T02:09:02.868Z,0
2016-04-01T02:10:02.871Z,0
2016-04-01T02:11:02.874Z,0
2016-04-01T02:12:02.892Z,0
2016-04-01T02:13:02.879Z,0
2016-04-01T02:14:02.866Z,0
2016-04-01T02:15:02.868Z,0
2016-04-01T02:16:02.871Z,0
2016-04-01T02:17:02.874Z,0
2016-04-01T02:18:02.877Z,0
2016-04-01T02:19:02.911Z,0
2016-04-01T02:20:02.866Z,0
2016-04-01T02:21:02.884Z,0
2016-04-01T02:22:02.856Z,0
2016-04-01T02:23:02.874Z,0
2016-04-01T02:24:02.862Z,0
2016-04-01T02:25:02.864Z,0
2016-04-01T02:26:02.898Z,0
2016-04-01T02:27:02.870Z,0
2016-04-01T02:28:02.888Z,0
2016-04-01T02:29:02.891Z,0
2016-04-01T02:30:02.893Z,0
2016-04-01T02:31:02.865Z,0
2016-04-01T02:32:02.883Z,0
2016-04-01T02:33:02.901Z,0
2016-04-01T02:34:02.872Z,0
2016-04-01T02:35:02.875Z,0
2016-04-01T02:36:02.878Z,0
2016-04-01T02:37:02.881Z,0
2016-04-01T02:38:02.884Z,0
2016-04-01T02:39:02.870Z,0
2016-04-01T02:40:02.873Z,0
2016-04-01T02:41:02.860Z,0
2016-04-01T02:42:02.878Z,0
2016-04-01T02:43:02.865Z,0
2016-04-01T02:44:02.712Z,0
2016-04-01T02:45:02.886Z,0
2016-04-01T02:46:02.888Z,0
2016-04-01T02:47:02.891Z,0
2016-04-01T02:48:02.879Z,0
2016-04-01T02:49:02.881Z,0
2016-04-01T02:50:02.884Z,0
2016-04-01T02:51:02.856Z,0
2016-04-01T02:52:02.859Z,0
2016-04-01T02:53:02.862Z,0
2016-04-01T02:54:02.880Z,0
2016-04-01T02:55:02.882Z,0
2016-04-01T02:56:02.870Z,0
2016-04-01T02:57:02.873Z,0
2016-04-01T02:58:02.859Z,0
2016-04-01T02:59:02.878Z,0
2016-04-01T03:00:02.881Z,0
2016-04-01T03:01:02.867Z,0
2016-04-01T03:02:02.870Z,0
2016-04-01T03:03:02.889Z,0
2016-04-01T03:04:02.875Z,0
2016-04-01T03:05:02.894Z,0
2016-04-01T03:06:02.880Z,0
2016-04-01T03:07:02.868Z,0
2016-04-01T03:08:02.870Z,0
2016-04-01T03:09:02.857Z,0
2016-04-01T03:10:02.892Z,0
2016-04-01T03:11:03.128Z,0
2016-04-01T03:12:02.866Z,0
2016-04-01T03:13:02.916Z,0
2016-04-01T03:14:02.886Z,0
2016-04-01T03:15:02.889Z,0
2016-04-01T03:16:02.876Z,0
2016-04-01T03:17:02.879Z,0
2016-04-01T03:18:02.881Z,0
2016-04-01T03:19:02.868Z,0
2016-04-01T03:20:02.887Z,0
2016-04-01T03:21:02.874Z,0
2016-04-01T03:22:02.721Z,0
2016-04-01T03:23:02.879Z,0
2016-04-01T03:24:02.882Z,0
2016-04-01T03:25:02.885Z,0
2016-04-01T03:26:02.887Z,0
2016-04-01T03:27:02.874Z,0
2016-04-01T03:28:02.862Z,0
2016-04-01T03:29:02.865Z,0
2016-04-01T03:30:02.867Z,0
2016-04-01T03:31:02.870Z,0
2016-04-01T03:32:02.873Z,0
2016-04-01T03:33:02.891Z,0
2016-04-01T03:34:02.877Z,0
2016-04-01T03:35:02.880Z,0
2016-04-01T03:36:02.867Z,0
2016-04-01T03:37:02.886Z,0
2016-04-01T03:38:02.889Z,0
2016-04-01T03:39:02.891Z,0
2016-04-01T03:40:02.894Z,0
2016-04-01T03:41:02.881Z,0
2016-04-01T03:42:02.883Z,0
2016-04-01T03:43:02.902Z,0
2016-04-01T03:44:02.889Z,0
2016-04-01T03:45:02.892Z,0
2016-04-01T03:46:02.738Z,0
2016-04-01T03:47:02.882Z,0
2016-04-01T03:48:02.885Z,0
2016-04-01T03:49:02.887Z,0
2016-04-01T03:50:02.874Z,0
2016-04-01T03:51:02.877Z,0
2016-04-01T03:52:02.879Z,0
2016-04-01T03:53:02.882Z,0
2016-04-01T03:54:02.885Z,0
2016-04-01T03:55:02.872Z,0
2016-04-01T03:56:02.874Z,0
2016-04-01T03:57:02.876Z,0
2016-04-01T03:58:02.879Z,0
2016-04-01T03:59:02.882Z,0
2016-04-01T04:00:02.869Z,0
2016-04-01T04:01:02.856Z,0
2016-04-01T04:02:02.875Z,0
2016-04-01T04:03:03.175Z,0
2016-04-01T04:04:02.881Z,0
2016-04-01T04:05:02.883Z,0
2016-04-01T04:06:02.886Z,0
2016-04-01T04:07:02.873Z,0
2016-04-01T04:08:02.875Z,0
2016-04-01T04:09:02.878Z,0
2016-04-01T04:10:02.881Z,0
2016-04-01T04:11:02.899Z,0
2016-04-01T04:12:02.886Z,0
2016-04-01T04:13:02.889Z,0
2016-04-01T04:14:02.907Z,0
2016-04-01T04:15:02.878Z,0
2016-04-01T04:16:02.881Z,0
2016-04-01T04:17:02.900Z,0
2016-04-01T04:18:02.886Z,0
2016-04-01T04:19:02.874Z,0
2016-04-01T04:20:02.877Z,0
2016-04-01T04:21:02.879Z,0
2016-04-01T04:22:02.882Z,0
2016-04-01T04:23:02.916Z,0
2016-04-01T04:24:02.888Z,0
2016-04-01T04:25:02.874Z,0
2016-04-01T04:26:02.721Z,0
2016-04-01T04:27:02.880Z,0
2016-04-01T04:28:02.883Z,0
2016-04-01T04:29:02.885Z,0
2016-04-01T04:30:02.873Z,0
2016-04-01T04:31:02.876Z,0
2016-04-01T04:32:02.878Z,0
2016-04-01T04:33:02.881Z,0
2016-04-01T04:34:02.883Z,0
2016-04-01T04:35:02.886Z,4
2016-04-01T04:36:02.889Z,4
2016-04-01T04:37:02.875Z,4
2016-04-01T04:38:02.878Z,0
2016-04-01T04:39:02.897Z,4
2016-04-01T04:40:07.633Z,4
2016-04-01T04:41:02.886Z,4
2016-04-01T04:42:02.889Z,4
2016-04-01T04:43:02.892Z,8
2016-04-01T04:44:02.895Z,8
2016-04-01T04:45:02.881Z,8
2016-04-01T04:46:02.869Z,8
2016-04-01T04:47:02.886Z,8
2016-04-01T04:48:02.889Z,12
2016-04-01T04:49:02.877Z,12
2016-04-01T04:50:02.879Z,12
2016-04-01T04:51:02.882Z,12
2016-04-01T04:52:02.885Z,12
2016-04-01T04:53:02.887Z,12
2016-04-01T04:54:02.890Z,16
2016-04-01T04:55:02.908Z,16
2016-04-01T04:56:02.895Z,16
2016-04-01T04:57:02.883Z,16
2016-04-01T04:58:02.885Z,16
2016-04-01T04:59:02.887Z,20
2016-04-01T05:00:02.891Z,20
2016-04-01T05:01:02.877Z,24
2016-04-01T05:02:02.895Z,24
2016-04-01T05:03:02.883Z,28
2016-04-01T05:04:02.885Z,32
2016-04-01T05:05:02.873Z,36
2016-04-01T05:06:02.922Z,40
2016-04-01T05:07:02.878Z,44
2016-04-01T05:08:02.864Z,48
2016-04-01T05:09:02.898Z,52
2016-04-01T05:10:02.886Z,60
2016-04-01T05:11:02.889Z,64
2016-04-01T05:12:02.891Z,68
2016-04-01T05:13:02.879Z,68
2016-04-01T05:14:02.881Z,72
2016-04-01T05:15:02.883Z,76
2016-04-01T05:16:02.887Z,88
2016-04-01T05:17:02.889Z,100
2016-04-01T05:18:02.891Z,108
2016-04-01T05:19:02.879Z,116
2016-04-01T05:20:02.866Z,128
2016-04-01T05:21:02.885Z,132
2016-04-01T05:22:02.888Z,136
2016-04-01T05:23:02.874Z,144
2016-04-01T05:24:02.908Z,160
2016-04-01T05:25:02.896Z,180
2016-04-01T05:26:02.914Z,184
2016-04-01T05:27:02.901Z,180
2016-04-01T05:28:02.887Z,180
2016-04-01T05:29:02.906Z,200
2016-04-01T05:30:02.893Z,212
2016-04-01T05:31:02.912Z,224
2016-04-01T05:32:02.914Z,236
2016-04-01T05:33:02.901Z,244
2016-04-01T05:34:02.888Z,248
2016-04-01T05:35:02.875Z,256
2016-04-01T05:36:02.893Z,260
2016-04-01T05:37:02.881Z,272
2016-04-01T05:38:02.884Z,292
2016-04-01T05:39:02.887Z,304
2016-04-01T05:40:02.904Z,272
2016-04-01T05:41:02.875Z,256
2016-04-01T05:42:02.910Z,268
2016-04-01T05:43:02.897Z,276
2016-04-01T05:44:02.900Z,272
2016-04-01T05:45:02.886Z,276
2016-04-01T05:46:02.889Z,276
2016-04-01T05:47:02.892Z,276
2016-04-01T05:48:02.895Z,276
2016-04-01T05:49:02.741Z,272
2016-04-01T05:50:02.883Z,272
2016-04-01T05:51:02.871Z,280
2016-04-01T05:52:02.889Z,304
2016-04-01T05:53:02.908Z,340
2016-04-01T05:54:02.911Z,376
2016-04-01T05:55:02.913Z,400
2016-04-01T05:56:02.885Z,436
2016-04-01T05:57:02.903Z,480
2016-04-01T05:58:02.874Z,472
2016-04-01T05:59:02.908Z,452
2016-04-01T06:00:02.896Z,428
2016-04-01T06:01:02.898Z,452
2016-04-01T06:02:02.886Z,516
2016-04-01T06:03:02.887Z,548
2016-04-01T06:04:02.890Z,548
2016-04-01T06:05:02.909Z,512
2016-04-01T06:06:02.895Z,496
2016-04-01T06:07:02.884Z,492
2016-04-01T06:08:02.889Z,496
2016-04-01T06:09:02.877Z,472
2016-04-01T06:10:02.895Z,440
2016-04-01T06:11:02.898Z,436
2016-04-01T06:12:02.900Z,480
2016-04-01T06:13:02.888Z,552
2016-04-01T06:14:02.891Z,564
2016-04-01T06:15:02.894Z,548
2016-04-01T06:16:02.896Z,548
2016-04-01T06:17:02.899Z,580
2016-04-01T06:18:02.901Z,632
2016-04-01T06:19:02.888Z,664
2016-04-01T06:20:02.891Z,720
2016-04-01T06:21:02.893Z,756
2016-04-01T06:22:02.880Z,704
2016-04-01T06:23:02.883Z,668
2016-04-01T06:24:02.887Z,688
2016-04-01T06:25:02.889Z,700
2016-04-01T06:26:02.891Z,676
2016-04-01T06:27:02.894Z,624
2016-04-01T06:28:02.897Z,576
2016-04-01T06:29:02.931Z,540
2016-04-01T06:30:02.917Z,516
2016-04-01T06:31:02.920Z,512
2016-04-01T06:32:02.923Z,528
2016-04-01T06:33:02.895Z,536
2016-04-01T06:34:02.898Z,492
2016-04-01T06:35:02.900Z,452
2016-04-01T06:36:02.903Z,424
2016-04-01T06:37:02.890Z,408
2016-04-01T06:38:02.892Z,392
2016-04-01T06:39:02.880Z,384
2016-04-01T06:40:02.898Z,388
2016-04-01T06:41:02.900Z,408
2016-04-01T06:42:02.935Z,432
2016-04-01T06:43:02.921Z,456
2016-04-01T06:44:02.908Z,460
2016-04-01T06:45:02.896Z,448
2016-04-01T06:46:02.913Z,424
2016-04-01T06:47:02.901Z,424
2016-04-01T06:48:02.904Z,468
2016-04-01T06:49:02.907Z,504
2016-04-01T06:50:02.910Z,560
2016-04-01T06:51:02.912Z,648
2016-04-01T06:52:02.915Z,736
2016-04-01T06:53:02.902Z,832
2016-04-01T06:54:02.904Z,892
2016-04-01T06:55:02.891Z,860
2016-04-01T06:56:02.894Z,828
2016-04-01T06:57:02.896Z,884
2016-04-01T06:58:02.899Z,928
2016-04-01T06:59:02.901Z,908
2016-04-01T07:00:02.904Z,912
2016-04-01T07:01:02.907Z,1004
2016-04-01T07:02:02.926Z,1108
2016-04-01T07:03:02.912Z,1204
2016-04-01T07:04:02.915Z,1328
2016-04-01T07:05:02.918Z,1496
2016-04-01T07:06:02.921Z,1636
2016-04-01T07:07:02.908Z,1720
2016-04-01T07:08:02.910Z,1756
2016-04-01T07:09:02.913Z,1768
2016-04-01T07:10:02.900Z,1832
2016-04-01T07:11:02.950Z,2036
2016-04-01T07:12:02.937Z,2308
2016-04-01T07:13:02.908Z,2480
2016-04-01T07:14:02.911Z,2544
2016-04-01T07:15:02.898Z,2376
2016-04-01T07:16:02.901Z,2192
2016-04-01T07:17:02.935Z,2084
2016-04-01T07:18:02.907Z,2056
2016-04-01T07:19:02.956Z,2064
2016-04-01T07:20:02.913Z,2140
2016-04-01T07:21:02.915Z,2304
2016-04-01T07:22:02.948Z,2540
2016-04-01T07:23:02.935Z,2824
2016-04-01T07:24:02.924Z,2864
2016-04-01T07:25:02.909Z,2664
2016-04-01T07:26:02.912Z,2424
2016-04-01T07:27:02.915Z,2264
2016-04-01T07:28:02.918Z,2172
2016-04-01T07:29:02.920Z,2200
2016-04-01T07:30:03.018Z,2396
2016-04-01T07:31:02.942Z,2692
2016-04-01T07:32:02.928Z,2940
2016-04-01T07:33:02.932Z,2984
2016-04-01T07:34:02.918Z,2868
2016-04-01T07:35:02.921Z,2740
2016-04-01T07:36:02.940Z,2612
2016-04-01T07:37:02.927Z,2512
2016-04-01T07:38:02.929Z,2560
2016-04-01T07:39:02.932Z,2676
2016-04-01T07:40:02.951Z,2776
2016-04-01T07:41:02.937Z,2900
2016-04-01T07:42:02.940Z,3040
2016-04-01T07:43:02.928Z,3068
2016-04-01T07:44:02.917Z,3204
2016-04-01T07:45:02.903Z,3524
2016-04-01T07:46:02.891Z,4036
2016-04-01T07:47:02.878Z,4188
2016-04-01T07:48:02.849Z,4556
2016-04-01T07:49:02.862Z,4420
2016-04-01T07:50:02.843Z,4148
2016-04-01T07:51:02.856Z,4116
2016-04-01T07:52:02.822Z,4276
2016-04-01T07:53:02.852Z,4448
2016-04-01T07:54:02.851Z,4780
2016-04-01T07:55:02.820Z,5068
2016-04-01T07:56:02.821Z,5464
2016-04-01T07:57:02.838Z,5840
2016-04-01T07:58:02.823Z,6396
2016-04-01T07:59:02.825Z,6988
2016-04-01T08:00:02.827Z,7712
2016-04-01T08:01:02.845Z,8436
2016-04-01T08:02:02.847Z,8564
2016-04-01T08:03:02.833Z,8604
2016-04-01T08:04:02.835Z,8324
2016-04-01T08:05:02.837Z,8368
2016-04-01T08:06:02.886Z,8596
2016-04-01T08:07:02.842Z,8372
2016-04-01T08:08:02.844Z,8176
2016-04-01T08:09:02.832Z,8192
2016-04-01T08:10:02.849Z,8372
2016-04-01T08:11:02.852Z,8264
2016-04-01T08:12:02.840Z,8268
2016-04-01T08:13:02.827Z,8352
2016-04-01T08:14:02.860Z,8288
2016-04-01T08:15:02.848Z,8708
2016-04-01T08:16:02.851Z,9156
2016-04-01T08:17:02.853Z,8884
2016-04-01T08:18:02.856Z,8780
2016-04-01T08:19:02.859Z,8240
2016-04-01T08:20:02.845Z,7552
2016-04-01T08:21:02.864Z,6764
2016-04-01T08:22:02.866Z,6016
2016-04-01T08:23:02.869Z,5744
2016-04-01T08:24:02.856Z,5604
2016-04-01T08:25:02.859Z,5832
2016-04-01T08:26:02.861Z,6012
2016-04-01T08:27:02.863Z,6488
2016-04-01T08:28:02.866Z,6344
2016-04-01T08:29:02.886Z,6292
2016-04-01T08:30:02.872Z,6468
2016-04-01T08:31:02.875Z,6572
2016-04-01T08:32:02.878Z,6224
2016-04-01T08:33:02.880Z,5756
2016-04-01T08:34:02.865Z,5432
2016-04-01T08:35:02.886Z,4916
2016-04-01T08:36:02.888Z,4736
2016-04-01T08:37:02.891Z,4976
2016-04-01T08:38:02.894Z,4988
2016-04-01T08:39:02.896Z,5000
2016-04-01T08:40:02.899Z,5228
2016-04-01T08:41:02.884Z,5348
2016-04-01T08:42:02.904Z,5328
2016-04-01T08:43:02.889Z,5764
2016-04-01T08:44:02.892Z,6112
2016-04-01T08:45:02.910Z,5908
2016-04-01T08:46:02.898Z,5376
2016-04-01T08:47:02.900Z,4968
2016-04-01T08:48:02.903Z,5220
2016-04-01T08:49:02.906Z,5532
2016-04-01T08:50:02.923Z,5960
2016-04-01T08:51:02.911Z,6356
2016-04-01T08:52:02.773Z,6660
2016-04-01T08:53:02.917Z,6724
2016-04-01T08:54:03.153Z,6668
2016-04-01T08:55:02.781Z,6612
2016-04-01T08:56:02.940Z,6852
2016-04-01T08:57:02.927Z,7392
2016-04-01T08:58:03.039Z,8208
2016-04-01T08:59:02.932Z,8436
2016-04-01T09:00:02.935Z,8352
2016-04-01T09:01:02.953Z,8288
2016-04-01T09:02:02.940Z,8696
2016-04-01T09:03:02.943Z,8892
2016-04-01T09:04:02.946Z,8924
2016-04-01T09:05:02.948Z,8888
2016-04-01T09:06:02.951Z,8928
2016-04-01T09:07:02.954Z,9544
2016-04-01T09:08:02.972Z,10076
2016-04-01T09:09:02.959Z,10832
2016-04-01T09:10:02.962Z,11320
2016-04-01T09:11:02.965Z,10760
2016-04-01T09:12:02.967Z,10284
2016-04-01T09:13:05.173Z,11280
2016-04-01T09:14:02.973Z,10580
2016-04-01T09:15:02.975Z,10420
2016-04-01T09:16:02.978Z,10868
2016-04-01T09:17:02.981Z,11048
2016-04-01T09:18:02.984Z,10996
2016-04-01T09:19:02.986Z,10644
2016-04-01T09:20:02.989Z,10872
2016-04-01T09:21:02.992Z,11024
2016-04-01T09:22:03.009Z,11180
2016-04-01T09:23:02.997Z,11248
2016-04-01T09:24:02.999Z,11348
2016-04-01T09:25:03.017Z,11284
2016-04-01T09:26:03.005Z,11188
2016-04-01T09:27:03.007Z,10796
2016-04-01T09:28:03.010Z,10208
2016-04-01T09:29:03.013Z,9424
2016-04-01T09:30:03.015Z,8748
2016-04-01T09:31:03.002Z,8368
2016-04-01T09:32:03.021Z,8336
2016-04-01T09:33:03.024Z,8848
2016-04-01T09:34:03.027Z,9240
2016-04-01T09:35:03.045Z,9516
2016-04-01T09:36:03.047Z,9780
2016-04-01T09:37:03.050Z,10160
2016-04-01T09:38:03.069Z,10264
2016-04-01T09:39:03.071Z,10252
2016-04-01T09:40:03.058Z,10276
2016-04-01T09:41:03.060Z,10376
2016-04-01T09:42:03.048Z,10524
2016-04-01T09:43:03.066Z,10964
2016-04-01T09:44:03.069Z,11108
2016-04-01T09:45:03.071Z,10984
2016-04-01T09:46:03.074Z,10616
2016-04-01T09:47:03.077Z,10296
2016-04-01T09:48:03.096Z,10096
2016-04-01T09:49:03.083Z,10024
2016-04-01T09:50:03.195Z,10088
2016-04-01T09:51:03.088Z,10148
2016-04-01T09:52:03.090Z,9996
2016-04-01T09:53:03.093Z,10012
2016-04-01T09:54:03.111Z,10072
2016-04-01T09:55:03.098Z,10200
2016-04-01T09:56:03.117Z,10292
2016-04-01T09:57:03.120Z,10356
2016-04-01T09:58:03.450Z,10340
2016-04-01T09:59:03.125Z,10196
2016-04-01T10:00:03.128Z,10092
2016-04-01T10:01:03.177Z,9932
2016-04-01T10:02:03.133Z,9636
2016-04-01T10:03:03.119Z,9224
2016-04-01T10:04:03.138Z,8640
2016-04-01T10:05:03.141Z,8032
2016-04-01T10:06:03.143Z,8004
2016-04-01T10:07:03.146Z,8276
2016-04-01T10:08:03.711Z,8472
2016-04-01T10:09:03.199Z,8572
2016-04-01T10:10:03.186Z,8500
2016-04-01T10:11:03.189Z,8440
2016-04-01T10:12:03.175Z,8448
2016-04-01T10:13:03.178Z,8756
2016-04-01T10:14:03.180Z,8992
2016-04-01T10:15:03.183Z,9136
2016-04-01T10:16:03.185Z,9256
2016-04-01T10:17:03.188Z,9272
2016-04-01T10:18:03.191Z,9152
2016-04-01T10:19:03.194Z,8588
2016-04-01T10:20:03.197Z,8572
2016-04-01T10:21:03.231Z,8808
2016-04-01T10:22:03.202Z,8976
2016-04-01T10:23:03.204Z,8992
2016-04-01T10:24:03.207Z,8728
2016-04-01T10:25:03.210Z,8380
2016-04-01T10:26:03.212Z,7728
2016-04-01T10:27:03.215Z,6480
2016-04-01T10:28:03.249Z,6588
2016-04-01T10:29:03.253Z,6780
2016-04-01T10:30:03.255Z,6652
2016-04-01T10:31:03.273Z,6432
2016-04-01T10:32:03.228Z,6172
2016-04-01T10:33:03.247Z,5932
2016-04-01T10:34:03.250Z,5684
2016-04-01T10:35:03.253Z,5452
2016-04-01T10:36:03.256Z,5316
2016-04-01T10:37:03.259Z,4928
2016-04-01T10:38:03.277Z,4512
2016-04-01T10:39:03.280Z,4388
2016-04-01T10:40:03.282Z,3968
2016-04-01T10:41:03.285Z,3728
2016-04-01T10:42:03.287Z,3676
2016-04-01T10:43:03.290Z,3592
2016-04-01T10:44:03.293Z,3524
2016-04-01T10:45:03.296Z,3432
2016-04-01T10:46:03.314Z,3612
2016-04-01T10:47:03.301Z,3144
2016-04-01T10:48:03.304Z,2836
2016-04-01T10:49:03.306Z,2672
2016-04-01T10:50:03.293Z,2808
2016-04-01T10:51:03.311Z,2564
2016-04-01T10:52:03.314Z,2504
2016-04-01T10:53:03.317Z,2704
2016-04-01T10:54:03.320Z,2440
2016-04-01T10:55:03.323Z,2208
2016-04-01T10:56:03.340Z,1860
2016-04-01T10:57:03.390Z,1776
2016-04-01T10:58:03.330Z,1788
2016-04-01T10:59:03.333Z,1868
2016-04-01T11:00:03.336Z,1908
2016-04-01T11:01:03.339Z,1744
2016-04-01T11:02:03.372Z,1512
2016-04-01T11:03:03.375Z,1468
2016-04-01T11:04:03.347Z,1548
2016-04-01T11:05:03.349Z,1484
2016-04-01T11:06:03.352Z,1628
2016-04-01T11:07:03.354Z,1688
2016-04-01T11:08:03.350Z,1628
2016-04-01T11:09:03.353Z,1600
2016-04-01T11:10:03.372Z,1576
2016-04-01T11:11:03.375Z,1492
2016-04-01T11:12:03.377Z,1532
2016-04-01T11:13:03.380Z,1624
2016-04-01T11:14:03.382Z,1684
2016-04-01T11:15:03.385Z,1660
2016-04-01T11:16:03.388Z,1752
2016-04-01T11:17:03.375Z,1768
2016-04-01T11:18:03.378Z,1820
2016-04-01T11:19:03.380Z,1784
2016-04-01T11:20:03.383Z,1664
2016-04-01T11:21:03.385Z,1756
2016-04-01T11:22:03.404Z,1792
2016-04-01T11:23:03.406Z,1908
2016-04-01T11:24:03.424Z,1916
2016-04-01T11:25:03.412Z,1612
2016-04-01T11:26:03.399Z,1592
2016-04-01T11:27:03.433Z,1832
2016-04-01T11:28:03.404Z,1872
2016-04-01T11:29:03.407Z,1968
2016-04-01T11:30:03.425Z,2340
2016-04-01T11:31:03.412Z,2552
2016-04-01T11:32:03.414Z,2544
2016-04-01T11:33:03.433Z,2424
2016-04-01T11:34:03.436Z,2104
2016-04-01T11:35:03.423Z,1888
2016-04-01T11:36:03.426Z,1892
2016-04-01T11:37:03.428Z,1952
2016-04-01T11:38:03.431Z,2008
2016-04-01T11:39:03.730Z,2016
2016-04-01T11:40:03.452Z,1988
2016-04-01T11:41:03.439Z,1940
2016-04-01T11:42:03.442Z,1892
2016-04-01T11:43:03.461Z,1848
2016-04-01T11:44:03.463Z,1828
2016-04-01T11:45:03.450Z,1840
2016-04-01T11:46:03.484Z,1872
2016-04-01T11:47:03.455Z,1888
2016-04-01T11:48:03.458Z,1876
2016-04-01T11:49:03.460Z,1824
2016-04-01T11:50:03.495Z,1760
2016-04-01T11:51:03.466Z,1708
2016-04-01T11:52:03.469Z,1696
2016-04-01T11:53:03.534Z,1712
2016-04-01T11:54:03.474Z,1752
2016-04-01T11:55:03.477Z,1796
2016-04-01T11:56:03.526Z,1848
2016-04-01T11:57:03.482Z,1908
2016-04-01T11:58:03.484Z,1996
2016-04-01T11:59:03.487Z,2104
2016-04-01T12:00:03.490Z,2192
2016-04-01T12:01:03.477Z,2268
2016-04-01T12:02:03.512Z,2332
2016-04-01T12:03:03.498Z,2384
2016-04-01T12:04:03.501Z,2428
2016-04-01T12:05:03.487Z,2472
2016-04-01T12:06:03.490Z,2504
2016-04-01T12:07:03.493Z,2512
2016-04-01T12:08:03.496Z,2480
2016-04-01T12:09:03.499Z,2444
2016-04-01T12:10:03.501Z,2416
2016-04-01T12:11:03.504Z,2388
2016-04-01T12:12:03.522Z,2360
2016-04-01T12:13:03.509Z,2328
2016-04-01T12:14:03.527Z,2308
2016-04-01T12:15:03.561Z,2312
2016-04-01T12:16:03.549Z,2356
2016-04-01T12:17:03.536Z,2448
2016-04-01T12:18:03.539Z,2592
2016-04-01T12:19:03.526Z,2772
2016-04-01T12:20:03.544Z,2992
2016-04-01T12:21:03.531Z,3236
2016-04-01T12:22:03.533Z,3472
2016-04-01T12:23:03.552Z,3684
2016-04-01T12:24:03.554Z,3828
2016-04-01T12:25:03.541Z,3904
2016-04-01T12:26:03.560Z,3916
2016-04-01T12:27:03.562Z,3892
2016-04-01T12:28:03.550Z,3848
2016-04-01T12:29:03.740Z,3788
2016-04-01T12:30:03.571Z,3732
2016-04-01T12:31:03.573Z,3716
2016-04-01T12:32:03.576Z,3744
2016-04-01T12:33:03.579Z,3792
2016-04-01T12:34:03.551Z,3856
2016-04-01T12:35:03.554Z,3948
2016-04-01T12:36:03.571Z,4052
2016-04-01T12:37:03.559Z,4144
2016-04-01T12:38:03.592Z,4220
2016-04-01T12:39:03.579Z,4296
2016-04-01T12:40:03.598Z,4408
2016-04-01T12:41:03.584Z,4548
2016-04-01T12:42:03.572Z,4708
2016-04-01T12:43:03.558Z,4840
2016-04-01T12:44:03.593Z,4916
2016-04-01T12:45:03.595Z,4892
2016-04-01T12:46:03.614Z,4780
2016-04-01T12:47:03.600Z,4660
2016-04-01T12:48:03.619Z,4628
2016-04-01T12:49:03.591Z,4728
2016-04-01T12:50:03.593Z,5016
2016-04-01T12:51:03.596Z,5480
2016-04-01T12:52:03.598Z,6028
2016-04-01T12:53:03.616Z,6452
2016-04-01T12:54:03.619Z,6616
2016-04-01T12:55:03.622Z,6528
2016-04-01T12:56:03.625Z,6220
2016-04-01T12:57:03.628Z,5860
2016-04-01T12:58:03.615Z,5536
2016-04-01T12:59:03.649Z,5256
2016-04-01T13:00:03.651Z,4984
2016-04-01T13:01:03.639Z,4692
2016-04-01T13:02:03.641Z,4460
2016-04-01T13:03:03.629Z,4368
2016-04-01T13:04:03.616Z,4328
2016-04-01T13:05:03.618Z,4276
2016-04-01T13:06:03.637Z,4196
2016-04-01T13:07:03.639Z,4076
2016-04-01T13:08:03.626Z,3920
2016-04-01T13:09:03.644Z,3832
2016-04-01T13:10:03.662Z,3820
2016-04-01T13:11:03.681Z,3852
2016-04-01T13:12:03.653Z,3896
2016-04-01T13:13:03.671Z,3868
2016-04-01T13:14:03.673Z,3776
2016-04-01T13:15:03.676Z,3676
2016-04-01T13:16:03.678Z,3552
2016-04-01T13:17:03.666Z,3408
2016-04-01T13:18:03.653Z,3264
2016-04-01T13:19:03.655Z,3152
2016-04-01T13:20:03.658Z,3136
2016-04-01T13:21:03.660Z,3156
2016-04-01T13:22:03.664Z,3180
2016-04-01T13:23:03.666Z,3184
2016-04-01T13:24:03.669Z,3152
2016-04-01T13:25:03.687Z,3136
2016-04-01T13:26:03.690Z,3120
2016-04-01T13:27:03.677Z,3084
2016-04-01T13:28:03.696Z,3032
2016-04-01T13:29:03.683Z,2972
2016-04-01T13:30:03.686Z,2924
2016-04-01T13:31:03.688Z,2908
2016-04-01T13:32:03.675Z,2952
2016-04-01T13:33:03.709Z,3072
2016-04-01T13:34:03.696Z,3264
2016-04-01T13:35:03.698Z,3500
2016-04-01T13:36:03.717Z,3748
2016-04-01T13:37:03.704Z,4052
2016-04-01T13:38:03.706Z,4396
2016-04-01T13:39:03.710Z,4676
2016-04-01T13:40:03.712Z,4852
2016-04-01T13:41:03.715Z,5028
2016-04-01T13:42:03.717Z,5280
2016-04-01T13:43:03.736Z,5516
2016-04-01T13:44:03.739Z,5580
2016-04-01T13:45:03.725Z,5468
2016-04-01T13:46:03.728Z,5144
2016-04-01T13:47:03.730Z,5016
2016-04-01T13:48:03.733Z,4984
2016-04-01T13:49:03.736Z,5012
2016-04-01T13:50:03.583Z,5088
2016-04-01T13:51:03.742Z,4888